sensor_id;sensor_type;location;lat;lon;timestamp;temperature;humidity
27667;DHT22;15074;50.940;5.282;2022-12-10T00:01:15;0.70;99.90
27667;DHT22;15074;50.940;5.282;2022-12-10T00:03:42;0.60;99.90
27667;DHT22;15074;50.940;5.282;2022-12-10T00:06:10;0.60;99.90
27667;DHT22;15074;50.940;5.282;2022-12-10T00:08:36;0.50;99.90
27667;DHT22;15074;50.940;5.282;2022-12-10T00:11:04;0.60;99.90
27667;DHT22;15074;50.940;5.282;2022-12-10T00:13:30;0.50;99.90
27667;DHT22;15074;50.940;5.282;2022-12-10T00:15:59;0.60;99.90
27667;DHT22;15074;50.940;5.282;2022-12-10T00:18:25;0.60;99.90
27667;DHT22;15074;50.940;5.282;2022-12-10T00:20:50;0.70;99.90
27667;DHT22;15074;50.940;5.282;2022-12-10T00:23:16;0.60;99.90
27667;DHT22;15074;50.940;5.282;2022-12-10T00:25:42;0.50;99.90
27667;DHT22;15074;50.940;5.282;2022-12-10T00:28:07;0.50;99.90
27667;DHT22;15074;50.940;5.282;2022-12-10T00:30:33;0.40;99.90
27667;DHT22;15074;50.940;5.282;2022-12-10T00:32:59;0.40;99.90
27667;DHT22;15074;50.940;5.282;2022-12-10T00:35:25;0.20;99.90
27667;DHT22;15074;50.940;5.282;2022-12-10T00:37:50;0.20;99.90
27667;DHT22;15074;50.940;5.282;2022-12-10T00:40:16;0.20;99.90
27667;DHT22;15074;50.940;5.282;2022-12-10T00:45:45;0.30;99.90
27667;DHT22;15074;50.940;5.282;2022-12-10T00:48:11;0.30;99.90
27667;DHT22;15074;50.940;5.282;2022-12-10T00:50:36;0.40;99.90
27667;DHT22;15074;50.940;5.282;2022-12-10T00:53:02;0.40;99.90
27667;DHT22;15074;50.940;5.282;2022-12-10T00:55:27;0.40;99.90
27667;DHT22;15074;50.940;5.282;2022-12-10T00:57:53;0.50;99.90
27667;DHT22;15074;50.940;5.282;2022-12-10T01:00:19;0.50;99.90
27667;DHT22;15074;50.940;5.282;2022-12-10T01:02:44;0.60;99.90
27667;DHT22;15074;50.940;5.282;2022-12-10T01:05:10;0.40;99.90
27667;DHT22;15074;50.940;5.282;2022-12-10T01:07:39;0.40;99.90
27667;DHT22;15074;50.940;5.282;2022-12-10T01:10:05;0.40;99.90
27667;DHT22;15074;50.940;5.282;2022-12-10T01:12:30;0.40;99.90
27667;DHT22;15074;50.940;5.282;2022-12-10T01:14:56;0.50;99.90
27667;DHT22;15074;50.940;5.282;2022-12-10T01:17:22;0.50;99.90
27667;DHT22;15074;50.940;5.282;2022-12-10T01:19:47;0.50;99.90
27667;DHT22;15074;50.940;5.282;2022-12-10T01:22:13;0.50;99.90
27667;DHT22;15074;50.940;5.282;2022-12-10T01:24:38;0.50;99.90
27667;DHT22;15074;50.940;5.282;2022-12-10T01:27:04;0.50;99.90
27667;DHT22;15074;50.940;5.282;2022-12-10T01:29:30;0.50;99.90
27667;DHT22;15074;50.940;5.282;2022-12-10T01:31:56;0.40;99.90
27667;DHT22;15074;50.940;5.282;2022-12-10T01:34:23;0.40;99.90
27667;DHT22;15074;50.940;5.282;2022-12-10T01:36:54;0.40;99.90
27667;DHT22;15074;50.940;5.282;2022-12-10T01:39:21;0.50;99.90
27667;DHT22;15074;50.940;5.282;2022-12-10T01:41:54;0.40;99.90
27667;DHT22;15074;50.940;5.282;2022-12-10T01:46:48;0.20;99.90
27667;DHT22;15074;50.940;5.282;2022-12-10T01:49:19;0.10;99.90
27667;DHT22;15074;50.940;5.282;2022-12-10T01:51:49;0.20;99.90
27667;DHT22;15074;50.940;5.282;2022-12-10T01:54:19;0.30;99.90
27667;DHT22;15074;50.940;5.282;2022-12-10T01:57:00;0.20;99.90
27667;DHT22;15074;50.940;5.282;2022-12-10T01:59:26;0.10;99.90
27667;DHT22;15074;50.940;5.282;2022-12-10T02:08:35;0.40;99.90
27667;DHT22;15074;50.940;5.282;2022-12-10T02:13:21;0.30;99.90
27667;DHT22;15074;50.940;5.282;2022-12-10T02:16:03;0.20;99.90
27667;DHT22;15074;50.940;5.282;2022-12-10T02:18:42;0.20;99.90
27667;DHT22;15074;50.940;5.282;2022-12-10T02:21:15;0.20;99.90
27667;DHT22;15074;50.940;5.282;2022-12-10T02:23:59;0.30;99.90
27667;DHT22;15074;50.940;5.282;2022-12-10T02:26:44;0.30;99.90
27667;DHT22;15074;50.940;5.282;2022-12-10T02:29:18;0.30;99.90
27667;DHT22;15074;50.940;5.282;2022-12-10T02:31:53;0.40;99.90
27667;DHT22;15074;50.940;5.282;2022-12-10T02:34:53;0.40;99.90
27667;DHT22;15074;50.940;5.282;2022-12-10T02:37:29;0.40;99.90
27667;DHT22;15074;50.940;5.282;2022-12-10T02:40:20;0.50;99.90
27667;DHT22;15074;50.940;5.282;2022-12-10T02:42:50;0.40;99.90
27667;DHT22;15074;50.940;5.282;2022-12-10T02:45:17;0.30;99.90
27667;DHT22;15074;50.940;5.282;2022-12-10T02:47:43;0.40;99.90
27667;DHT22;15074;50.940;5.282;2022-12-10T02:50:10;0.40;99.90
27667;DHT22;15074;50.940;5.282;2022-12-10T02:52:38;0.20;99.90
27667;DHT22;15074;50.940;5.282;2022-12-10T02:55:04;0.20;99.90
27667;DHT22;15074;50.940;5.282;2022-12-10T02:57:45;0.20;99.90
27667;DHT22;15074;50.940;5.282;2022-12-10T03:00:20;0.20;99.90
27667;DHT22;15074;50.940;5.282;2022-12-10T03:03:15;0.20;99.90
27667;DHT22;15074;50.940;5.282;2022-12-10T03:05:46;0.20;99.90
27667;DHT22;15074;50.940;5.282;2022-12-10T03:08:14;0.10;99.90
27667;DHT22;15074;50.940;5.282;2022-12-10T03:13:13;0.00;99.90
27667;DHT22;15074;50.940;5.282;2022-12-10T03:15:41;-0.10;99.90
27667;DHT22;15074;50.940;5.282;2022-12-10T03:18:09;0.10;99.90
27667;DHT22;15074;50.940;5.282;2022-12-10T03:20:42;-0.10;99.90
27667;DHT22;15074;50.940;5.282;2022-12-10T03:23:10;-0.10;99.90
27667;DHT22;15074;50.940;5.282;2022-12-10T03:25:38;0.00;99.90
27667;DHT22;15074;50.940;5.282;2022-12-10T03:28:04;0.20;99.90
27667;DHT22;15074;50.940;5.282;2022-12-10T03:30:32;0.20;99.90
27667;DHT22;15074;50.940;5.282;2022-12-10T03:32:58;0.20;99.90
27667;DHT22;15074;50.940;5.282;2022-12-10T03:35:24;0.20;99.90
27667;DHT22;15074;50.940;5.282;2022-12-10T03:37:51;0.10;99.90
27667;DHT22;15074;50.940;5.282;2022-12-10T03:40:20;0.00;99.90
27667;DHT22;15074;50.940;5.282;2022-12-10T03:42:46;-0.10;99.90
27667;DHT22;15074;50.940;5.282;2022-12-10T03:45:12;-0.10;99.90
27667;DHT22;15074;50.940;5.282;2022-12-10T03:47:39;-0.10;99.90
27667;DHT22;15074;50.940;5.282;2022-12-10T03:50:05;0.00;99.90
27667;DHT22;15074;50.940;5.282;2022-12-10T03:52:31;0.00;99.90
27667;DHT22;15074;50.940;5.282;2022-12-10T03:54:57;0.10;99.90
27667;DHT22;15074;50.940;5.282;2022-12-10T03:57:23;0.00;99.90
27667;DHT22;15074;50.940;5.282;2022-12-10T03:59:49;0.10;99.90
27667;DHT22;15074;50.940;5.282;2022-12-10T04:02:14;0.10;99.90
27667;DHT22;15074;50.940;5.282;2022-12-10T04:04:43;0.10;99.90
27667;DHT22;15074;50.940;5.282;2022-12-10T04:07:09;0.10;99.90
27667;DHT22;15074;50.940;5.282;2022-12-10T04:09:34;0.20;99.90
27667;DHT22;15074;50.940;5.282;2022-12-10T04:12:00;0.10;99.90
27667;DHT22;15074;50.940;5.282;2022-12-10T04:14:27;0.10;99.90
27667;DHT22;15074;50.940;5.282;2022-12-10T04:17:11;0.20;99.90
27667;DHT22;15074;50.940;5.282;2022-12-10T04:19:37;0.20;99.90
27667;DHT22;15074;50.940;5.282;2022-12-10T04:22:02;0.00;99.90
27667;DHT22;15074;50.940;5.282;2022-12-10T04:24:55;0.00;99.90
27667;DHT22;15074;50.940;5.282;2022-12-10T04:27:40;0.00;99.90
27667;DHT22;15074;50.940;5.282;2022-12-10T04:30:08;0.10;99.90
27667;DHT22;15074;50.940;5.282;2022-12-10T04:32:34;0.10;99.90
27667;DHT22;15074;50.940;5.282;2022-12-10T04:35:00;0.00;99.90
27667;DHT22;15074;50.940;5.282;2022-12-10T04:37:44;0.00;99.90
27667;DHT22;15074;50.940;5.282;2022-12-10T04:40:10;0.00;99.90
27667;DHT22;15074;50.940;5.282;2022-12-10T04:42:36;0.00;99.90
27667;DHT22;15074;50.940;5.282;2022-12-10T04:45:01;0.10;99.90
27667;DHT22;15074;50.940;5.282;2022-12-10T04:47:27;0.20;99.90
27667;DHT22;15074;50.940;5.282;2022-12-10T04:49:53;0.30;99.90
27667;DHT22;15074;50.940;5.282;2022-12-10T04:52:18;0.10;99.90
27667;DHT22;15074;50.940;5.282;2022-12-10T04:54:46;0.00;99.90
27667;DHT22;15074;50.940;5.282;2022-12-10T04:57:12;0.00;99.90
27667;DHT22;15074;50.940;5.282;2022-12-10T04:59:39;0.00;99.90
27667;DHT22;15074;50.940;5.282;2022-12-10T05:02:15;-0.10;99.90
27667;DHT22;15074;50.940;5.282;2022-12-10T05:04:41;-0.20;99.90
27667;DHT22;15074;50.940;5.282;2022-12-10T05:07:06;-0.20;99.90
27667;DHT22;15074;50.940;5.282;2022-12-10T05:09:32;-0.10;99.90
27667;DHT22;15074;50.940;5.282;2022-12-10T05:11:58;-0.10;99.90
27667;DHT22;15074;50.940;5.282;2022-12-10T05:14:24;0.00;99.90
27667;DHT22;15074;50.940;5.282;2022-12-10T05:16:51;0.00;99.90
27667;DHT22;15074;50.940;5.282;2022-12-10T05:19:17;-0.10;99.90
27667;DHT22;15074;50.940;5.282;2022-12-10T05:21:45;-0.10;99.90
27667;DHT22;15074;50.940;5.282;2022-12-10T05:24:33;0.00;99.90
27667;DHT22;15074;50.940;5.282;2022-12-10T05:26:58;0.10;99.90
27667;DHT22;15074;50.940;5.282;2022-12-10T05:29:24;0.00;99.90
27667;DHT22;15074;50.940;5.282;2022-12-10T05:31:50;0.00;99.90
27667;DHT22;15074;50.940;5.282;2022-12-10T05:34:15;0.10;99.90
27667;DHT22;15074;50.940;5.282;2022-12-10T05:36:55;0.00;99.90
27667;DHT22;15074;50.940;5.282;2022-12-10T05:39:23;0.10;99.90
27667;DHT22;15074;50.940;5.282;2022-12-10T05:41:48;0.20;99.90
27667;DHT22;15074;50.940;5.282;2022-12-10T05:44:14;0.20;99.90
27667;DHT22;15074;50.940;5.282;2022-12-10T05:46:55;0.10;99.90
27667;DHT22;15074;50.940;5.282;2022-12-10T05:49:39;0.10;99.90
27667;DHT22;15074;50.940;5.282;2022-12-10T05:52:05;0.10;99.90
27667;DHT22;15074;50.940;5.282;2022-12-10T05:54:50;0.20;99.90
27667;DHT22;15074;50.940;5.282;2022-12-10T05:57:16;0.20;99.90
27667;DHT22;15074;50.940;5.282;2022-12-10T05:59:42;0.10;99.90
27667;DHT22;15074;50.940;5.282;2022-12-10T06:02:08;0.10;99.90
27667;DHT22;15074;50.940;5.282;2022-12-10T06:04:34;0.10;99.90
27667;DHT22;15074;50.940;5.282;2022-12-10T06:06:59;0.10;99.90
27667;DHT22;15074;50.940;5.282;2022-12-10T06:09:38;0.00;99.90
27667;DHT22;15074;50.940;5.282;2022-12-10T06:12:04;0.10;99.90
27667;DHT22;15074;50.940;5.282;2022-12-10T06:14:30;0.20;99.90
27667;DHT22;15074;50.940;5.282;2022-12-10T06:16:55;0.10;99.90
27667;DHT22;15074;50.940;5.282;2022-12-10T06:19:21;0.10;99.90
27667;DHT22;15074;50.940;5.282;2022-12-10T06:21:58;0.20;99.90
27667;DHT22;15074;50.940;5.282;2022-12-10T06:24:42;0.10;99.90
27667;DHT22;15074;50.940;5.282;2022-12-10T06:27:08;0.00;99.90
27667;DHT22;15074;50.940;5.282;2022-12-10T06:29:34;-0.10;99.90
27667;DHT22;15074;50.940;5.282;2022-12-10T06:32:08;-0.10;99.90
27667;DHT22;15074;50.940;5.282;2022-12-10T06:34:37;0.00;99.90
27667;DHT22;15074;50.940;5.282;2022-12-10T06:37:02;-0.10;99.90
27667;DHT22;15074;50.940;5.282;2022-12-10T06:39:28;-0.20;99.90
27667;DHT22;15074;50.940;5.282;2022-12-10T06:41:54;-0.20;99.90
27667;DHT22;15074;50.940;5.282;2022-12-10T06:44:19;0.00;99.90
27667;DHT22;15074;50.940;5.282;2022-12-10T06:46:45;-0.10;99.90
27667;DHT22;15074;50.940;5.282;2022-12-10T06:49:17;-0.10;99.90
27667;DHT22;15074;50.940;5.282;2022-12-10T06:51:43;-0.10;99.90
27667;DHT22;15074;50.940;5.282;2022-12-10T06:54:08;-0.10;99.90
27667;DHT22;15074;50.940;5.282;2022-12-10T06:56:34;-0.10;99.90
27667;DHT22;15074;50.940;5.282;2022-12-10T06:59:04;-0.10;99.90
27667;DHT22;15074;50.940;5.282;2022-12-10T07:01:30;-0.30;99.90
27667;DHT22;15074;50.940;5.282;2022-12-10T07:03:56;-0.30;99.90
27667;DHT22;15074;50.940;5.282;2022-12-10T07:06:22;-0.20;99.90
27667;DHT22;15074;50.940;5.282;2022-12-10T07:08:49;-0.30;99.90
27667;DHT22;15074;50.940;5.282;2022-12-10T07:11:20;-0.30;99.90
27667;DHT22;15074;50.940;5.282;2022-12-10T07:13:46;-0.30;99.90
27667;DHT22;15074;50.940;5.282;2022-12-10T07:16:31;-0.30;99.90
27667;DHT22;15074;50.940;5.282;2022-12-10T07:19:00;-0.20;99.90
27667;DHT22;15074;50.940;5.282;2022-12-10T07:21:36;-0.20;99.90
27667;DHT22;15074;50.940;5.282;2022-12-10T07:24:08;-0.20;99.90
27667;DHT22;15074;50.940;5.282;2022-12-10T07:26:38;-0.30;99.90
27667;DHT22;15074;50.940;5.282;2022-12-10T07:29:06;-0.40;99.90
27667;DHT22;15074;50.940;5.282;2022-12-10T07:31:38;-0.40;99.90
27667;DHT22;15074;50.940;5.282;2022-12-10T07:34:04;-0.30;99.90
27667;DHT22;15074;50.940;5.282;2022-12-10T07:36:30;-0.30;99.90
27667;DHT22;15074;50.940;5.282;2022-12-10T07:38:55;-0.30;99.90
27667;DHT22;15074;50.940;5.282;2022-12-10T07:41:22;-0.40;99.90
27667;DHT22;15074;50.940;5.282;2022-12-10T07:43:48;-0.40;99.90
27667;DHT22;15074;50.940;5.282;2022-12-10T07:46:21;-0.40;99.90
27667;DHT22;15074;50.940;5.282;2022-12-10T07:48:48;-0.40;99.90
27667;DHT22;15074;50.940;5.282;2022-12-10T07:51:17;-0.40;99.90
27667;DHT22;15074;50.940;5.282;2022-12-10T07:53:43;-0.40;99.90
27667;DHT22;15074;50.940;5.282;2022-12-10T07:56:09;-0.50;99.90
27667;DHT22;15074;50.940;5.282;2022-12-10T07:58:35;-0.40;99.90
27667;DHT22;15074;50.940;5.282;2022-12-10T08:01:08;-0.30;99.90
27667;DHT22;15074;50.940;5.282;2022-12-10T08:03:34;-0.20;99.90
27667;DHT22;15074;50.940;5.282;2022-12-10T08:06:05;-0.20;99.90
27667;DHT22;15074;50.940;5.282;2022-12-10T08:08:33;-0.30;99.90
27667;DHT22;15074;50.940;5.282;2022-12-10T08:10:59;-0.20;99.90
27667;DHT22;15074;50.940;5.282;2022-12-10T08:13:25;-0.10;99.90
27667;DHT22;15074;50.940;5.282;2022-12-10T08:15:51;-0.10;99.90
27667;DHT22;15074;50.940;5.282;2022-12-10T08:18:17;-0.10;99.90
27667;DHT22;15074;50.940;5.282;2022-12-10T08:20:42;-0.10;99.90
27667;DHT22;15074;50.940;5.282;2022-12-10T08:23:08;-0.10;99.90
27667;DHT22;15074;50.940;5.282;2022-12-10T08:25:36;-0.10;99.90
27667;DHT22;15074;50.940;5.282;2022-12-10T08:28:02;0.00;99.90
27667;DHT22;15074;50.940;5.282;2022-12-10T08:30:29;0.00;99.90
27667;DHT22;15074;50.940;5.282;2022-12-10T08:32:55;0.00;99.90
27667;DHT22;15074;50.940;5.282;2022-12-10T08:35:21;0.00;99.90
27667;DHT22;15074;50.940;5.282;2022-12-10T08:37:46;0.00;99.90
27667;DHT22;15074;50.940;5.282;2022-12-10T08:40:13;0.00;99.90
27667;DHT22;15074;50.940;5.282;2022-12-10T08:42:38;0.00;99.90
27667;DHT22;15074;50.940;5.282;2022-12-10T08:45:05;0.00;99.90
27667;DHT22;15074;50.940;5.282;2022-12-10T08:47:31;0.00;99.90
27667;DHT22;15074;50.940;5.282;2022-12-10T08:49:56;-0.10;99.90
27667;DHT22;15074;50.940;5.282;2022-12-10T08:52:22;-0.20;99.90
27667;DHT22;15074;50.940;5.282;2022-12-10T08:54:48;-0.20;99.90
27667;DHT22;15074;50.940;5.282;2022-12-10T08:57:13;-0.10;99.90
27667;DHT22;15074;50.940;5.282;2022-12-10T08:59:39;-0.10;99.90
27667;DHT22;15074;50.940;5.282;2022-12-10T09:02:04;-0.10;99.90
27667;DHT22;15074;50.940;5.282;2022-12-10T09:04:30;-0.10;99.90
27667;DHT22;15074;50.940;5.282;2022-12-10T09:06:56;0.00;99.90
27667;DHT22;15074;50.940;5.282;2022-12-10T09:09:21;0.10;99.90
27667;DHT22;15074;50.940;5.282;2022-12-10T09:11:47;0.00;99.90
27667;DHT22;15074;50.940;5.282;2022-12-10T09:14:13;0.10;99.90
27667;DHT22;15074;50.940;5.282;2022-12-10T09:16:39;0.20;99.90
27667;DHT22;15074;50.940;5.282;2022-12-10T09:19:05;0.10;99.90
27667;DHT22;15074;50.940;5.282;2022-12-10T09:21:32;0.00;99.90
27667;DHT22;15074;50.940;5.282;2022-12-10T09:23:58;0.10;99.90
27667;DHT22;15074;50.940;5.282;2022-12-10T09:26:24;0.10;99.90
27667;DHT22;15074;50.940;5.282;2022-12-10T09:28:50;0.20;99.90
27667;DHT22;15074;50.940;5.282;2022-12-10T09:31:17;0.10;99.90
27667;DHT22;15074;50.940;5.282;2022-12-10T09:33:44;0.10;99.90
27667;DHT22;15074;50.940;5.282;2022-12-10T09:36:11;0.10;99.90
27667;DHT22;15074;50.940;5.282;2022-12-10T09:38:39;0.20;99.90
27667;DHT22;15074;50.940;5.282;2022-12-10T09:51:56;0.20;99.90
27667;DHT22;15074;50.940;5.282;2022-12-10T09:54:27;0.20;99.90
27667;DHT22;15074;50.940;5.282;2022-12-10T09:57:03;0.30;99.90
27667;DHT22;15074;50.940;5.282;2022-12-10T09:59:31;0.20;99.90
27667;DHT22;15074;50.940;5.282;2022-12-10T10:07:34;0.10;99.90
27667;DHT22;15074;50.940;5.282;2022-12-10T10:10:16;0.20;99.90
27667;DHT22;15074;50.940;5.282;2022-12-10T10:12:45;0.00;99.90
27667;DHT22;15074;50.940;5.282;2022-12-10T10:15:20;0.10;99.90
27667;DHT22;15074;50.940;5.282;2022-12-10T10:17:47;0.30;99.90
27667;DHT22;15074;50.940;5.282;2022-12-10T10:20:15;0.30;99.90
27667;DHT22;15074;50.940;5.282;2022-12-10T10:22:41;0.30;99.90
27667;DHT22;15074;50.940;5.282;2022-12-10T10:25:15;0.40;99.90
27667;DHT22;15074;50.940;5.282;2022-12-10T10:27:41;0.40;99.90
27667;DHT22;15074;50.940;5.282;2022-12-10T10:30:13;0.30;99.90
27667;DHT22;15074;50.940;5.282;2022-12-10T10:35:06;0.30;99.90
27667;DHT22;15074;50.940;5.282;2022-12-10T10:40:02;0.10;99.90
27667;DHT22;15074;50.940;5.282;2022-12-10T10:42:36;0.20;99.90
27667;DHT22;15074;50.940;5.282;2022-12-10T10:48:06;0.40;99.90
27667;DHT22;15074;50.940;5.282;2022-12-10T10:53:55;0.00;99.90
27667;DHT22;15074;50.940;5.282;2022-12-10T10:56:22;-0.10;99.90
27667;DHT22;15074;50.940;5.282;2022-12-10T11:04:55;0.20;99.90
27667;DHT22;15074;50.940;5.282;2022-12-10T11:07:34;0.10;99.90
27667;DHT22;15074;50.940;5.282;2022-12-10T11:10:24;0.20;99.90
27667;DHT22;15074;50.940;5.282;2022-12-10T11:19:01;0.00;99.90
27667;DHT22;15074;50.940;5.282;2022-12-10T11:21:32;0.10;99.90
27667;DHT22;15074;50.940;5.282;2022-12-10T11:24:00;0.20;99.90
27667;DHT22;15074;50.940;5.282;2022-12-10T11:27:08;0.40;99.90
27667;DHT22;15074;50.940;5.282;2022-12-10T11:49:17;0.20;99.90
27667;DHT22;15074;50.940;5.282;2022-12-10T12:35:20;0.50;99.90
27667;DHT22;15074;50.940;5.282;2022-12-10T12:40:47;0.40;99.90
27667;DHT22;15074;50.940;5.282;2022-12-10T12:43:19;0.20;99.90
27667;DHT22;15074;50.940;5.282;2022-12-10T12:45:48;0.20;99.90
27667;DHT22;15074;50.940;5.282;2022-12-10T12:51:03;0.40;99.90
27667;DHT22;15074;50.940;5.282;2022-12-10T12:53:31;0.40;99.90
27667;DHT22;15074;50.940;5.282;2022-12-10T12:56:21;0.50;99.90
27667;DHT22;15074;50.940;5.282;2022-12-10T13:01:40;0.40;99.90
27667;DHT22;15074;50.940;5.282;2022-12-10T13:04:46;0.50;99.90
27667;DHT22;15074;50.940;5.282;2022-12-10T13:09:52;0.40;99.90
27667;DHT22;15074;50.940;5.282;2022-12-10T13:12:51;0.40;99.90
27667;DHT22;15074;50.940;5.282;2022-12-10T13:29:56;0.70;99.90
27667;DHT22;15074;50.940;5.282;2022-12-10T13:33:18;0.80;99.90
27667;DHT22;15074;50.940;5.282;2022-12-10T13:35:58;0.60;99.90
27667;DHT22;15074;50.940;5.282;2022-12-10T13:38:38;0.50;99.90
27667;DHT22;15074;50.940;5.282;2022-12-10T13:41:22;0.40;99.90
27667;DHT22;15074;50.940;5.282;2022-12-10T13:44:36;0.40;99.90
27667;DHT22;15074;50.940;5.282;2022-12-10T13:50:35;0.70;99.90
27667;DHT22;15074;50.940;5.282;2022-12-10T14:01:58;0.70;99.90
27667;DHT22;15074;50.940;5.282;2022-12-10T14:07:03;0.70;99.90
27667;DHT22;15074;50.940;5.282;2022-12-10T14:09:34;0.70;99.90
27667;DHT22;15074;50.940;5.282;2022-12-10T14:12:31;0.90;99.90
27667;DHT22;15074;50.940;5.282;2022-12-10T14:15:04;0.80;99.90
27667;DHT22;15074;50.940;5.282;2022-12-10T14:17:37;0.90;99.90
27667;DHT22;15074;50.940;5.282;2022-12-10T14:20:07;0.80;99.90
27667;DHT22;15074;50.940;5.282;2022-12-10T14:22:37;0.80;99.90
27667;DHT22;15074;50.940;5.282;2022-12-10T14:25:09;0.70;99.90
27667;DHT22;15074;50.940;5.282;2022-12-10T14:27:36;0.80;99.90
27667;DHT22;15074;50.940;5.282;2022-12-10T14:30:22;0.70;99.90
27667;DHT22;15074;50.940;5.282;2022-12-10T14:32:49;0.70;99.90
27667;DHT22;15074;50.940;5.282;2022-12-10T14:35:21;0.50;99.90
27667;DHT22;15074;50.940;5.282;2022-12-10T14:37:49;0.50;99.90
27667;DHT22;15074;50.940;5.282;2022-12-10T14:40:39;0.50;99.90
27667;DHT22;15074;50.940;5.282;2022-12-10T14:43:08;0.60;99.90
27667;DHT22;15074;50.940;5.282;2022-12-10T14:46:00;0.60;99.90
27667;DHT22;15074;50.940;5.282;2022-12-10T14:48:27;0.60;99.90
27667;DHT22;15074;50.940;5.282;2022-12-10T14:50:53;0.70;99.90
27667;DHT22;15074;50.940;5.282;2022-12-10T14:53:26;0.70;99.90
27667;DHT22;15074;50.940;5.282;2022-12-10T14:56:05;0.70;99.90
27667;DHT22;15074;50.940;5.282;2022-12-10T14:58:42;0.70;99.90
27667;DHT22;15074;50.940;5.282;2022-12-10T15:01:38;0.80;99.90
27667;DHT22;15074;50.940;5.282;2022-12-10T15:04:11;0.80;99.90
27667;DHT22;15074;50.940;5.282;2022-12-10T15:06:37;0.80;99.90
27667;DHT22;15074;50.940;5.282;2022-12-10T15:09:05;0.90;99.90
27667;DHT22;15074;50.940;5.282;2022-12-10T15:11:55;0.90;99.90
27667;DHT22;15074;50.940;5.282;2022-12-10T15:14:23;0.80;99.90
27667;DHT22;15074;50.940;5.282;2022-12-10T15:16:50;0.80;99.90
27667;DHT22;15074;50.940;5.282;2022-12-10T15:19:31;0.70;99.90
27667;DHT22;15074;50.940;5.282;2022-12-10T15:24:42;0.60;99.90
27667;DHT22;15074;50.940;5.282;2022-12-10T15:27:18;0.40;99.90
27667;DHT22;15074;50.940;5.282;2022-12-10T15:29:44;0.50;99.90
27667;DHT22;15074;50.940;5.282;2022-12-10T15:32:19;0.50;99.90
27667;DHT22;15074;50.940;5.282;2022-12-10T15:34:48;0.40;99.90
27667;DHT22;15074;50.940;5.282;2022-12-10T15:37:20;0.40;99.90
27667;DHT22;15074;50.940;5.282;2022-12-10T15:40:02;0.40;99.90
27667;DHT22;15074;50.940;5.282;2022-12-10T15:42:39;0.40;99.90
27667;DHT22;15074;50.940;5.282;2022-12-10T15:45:41;0.40;99.90
27667;DHT22;15074;50.940;5.282;2022-12-10T15:48:10;0.40;99.90
27667;DHT22;15074;50.940;5.282;2022-12-10T15:50:49;0.50;99.90
27667;DHT22;15074;50.940;5.282;2022-12-10T15:53:34;0.50;99.90
27667;DHT22;15074;50.940;5.282;2022-12-10T15:56:01;0.60;99.90
27667;DHT22;15074;50.940;5.282;2022-12-10T15:58:27;0.50;99.90
27667;DHT22;15074;50.940;5.282;2022-12-10T16:00:53;0.60;99.90
27667;DHT22;15074;50.940;5.282;2022-12-10T16:03:53;0.60;99.90
27667;DHT22;15074;50.940;5.282;2022-12-10T16:06:19;0.70;99.90
27667;DHT22;15074;50.940;5.282;2022-12-10T16:08:45;0.60;99.90
27667;DHT22;15074;50.940;5.282;2022-12-10T16:11:31;0.60;99.90
27667;DHT22;15074;50.940;5.282;2022-12-10T16:13:57;0.70;99.90
27667;DHT22;15074;50.940;5.282;2022-12-10T16:16:24;0.60;99.90
27667;DHT22;15074;50.940;5.282;2022-12-10T16:18:50;0.70;99.90
27667;DHT22;15074;50.940;5.282;2022-12-10T17:21:13;0.40;99.90
27667;DHT22;15074;50.940;5.282;2022-12-10T17:40:38;0.50;99.90
27667;DHT22;15074;50.940;5.282;2022-12-10T17:43:04;0.60;99.90
27667;DHT22;15074;50.940;5.282;2022-12-10T17:45:30;0.60;99.90
27667;DHT22;15074;50.940;5.282;2022-12-10T17:47:55;0.50;99.90
27667;DHT22;15074;50.940;5.282;2022-12-10T17:50:44;0.60;99.90
27667;DHT22;15074;50.940;5.282;2022-12-10T17:53:28;0.60;99.90
27667;DHT22;15074;50.940;5.282;2022-12-10T17:55:58;0.60;99.90
27667;DHT22;15074;50.940;5.282;2022-12-10T17:58:24;0.30;99.90
27667;DHT22;15074;50.940;5.282;2022-12-10T18:04:06;0.40;99.90
27667;DHT22;15074;50.940;5.282;2022-12-10T18:06:32;0.40;99.90
27667;DHT22;15074;50.940;5.282;2022-12-10T18:09:16;0.50;99.90
27667;DHT22;15074;50.940;5.282;2022-12-10T18:11:42;0.80;99.90
27667;DHT22;15074;50.940;5.282;2022-12-10T18:24:42;0.80;99.90
27667;DHT22;15074;50.940;5.282;2022-12-10T18:30:58;0.50;99.90
27667;DHT22;15074;50.940;5.282;2022-12-10T18:37:05;0.60;99.90
27667;DHT22;15074;50.940;5.282;2022-12-10T18:39:31;0.50;99.90
27667;DHT22;15074;50.940;5.282;2022-12-10T18:42:00;0.50;99.90
27667;DHT22;15074;50.940;5.282;2022-12-10T18:44:27;0.40;99.90
27667;DHT22;15074;50.940;5.282;2022-12-10T18:46:54;0.40;99.90
27667;DHT22;15074;50.940;5.282;2022-12-10T18:49:20;0.40;99.90
27667;DHT22;15074;50.940;5.282;2022-12-10T18:51:51;0.40;99.90
27667;DHT22;15074;50.940;5.282;2022-12-10T18:54:17;0.40;99.90
27667;DHT22;15074;50.940;5.282;2022-12-10T18:56:43;0.50;99.90
27667;DHT22;15074;50.940;5.282;2022-12-10T18:59:15;0.50;99.90
27667;DHT22;15074;50.940;5.282;2022-12-10T19:01:40;0.60;99.90
27667;DHT22;15074;50.940;5.282;2022-12-10T19:04:06;0.70;99.90
27667;DHT22;15074;50.940;5.282;2022-12-10T19:10:18;0.40;99.90
27667;DHT22;15074;50.940;5.282;2022-12-10T19:12:44;0.40;99.90
27667;DHT22;15074;50.940;5.282;2022-12-10T19:15:12;0.40;99.90
27667;DHT22;15074;50.940;5.282;2022-12-10T19:21:00;0.40;99.90
27667;DHT22;15074;50.940;5.282;2022-12-10T19:23:45;0.40;99.90
27667;DHT22;15074;50.940;5.282;2022-12-10T19:29:22;0.50;99.90
27667;DHT22;15074;50.940;5.282;2022-12-10T19:31:49;0.60;99.90
27667;DHT22;15074;50.940;5.282;2022-12-10T19:51:26;0.70;99.90
27667;DHT22;15074;50.940;5.282;2022-12-10T19:53:51;0.80;99.90
27667;DHT22;15074;50.940;5.282;2022-12-10T19:56:42;0.70;99.90
27667;DHT22;15074;50.940;5.282;2022-12-10T21:03:56;0.80;99.90
27667;DHT22;15074;50.940;5.282;2022-12-10T21:09:44;0.80;99.90
27667;DHT22;15074;50.940;5.282;2022-12-10T21:12:09;0.80;99.90
27667;DHT22;15074;50.940;5.282;2022-12-10T21:20:48;1.00;99.90
27667;DHT22;15074;50.940;5.282;2022-12-10T21:29:40;1.00;99.90
27667;DHT22;15074;50.940;5.282;2022-12-10T21:32:06;1.00;99.90
27667;DHT22;15074;50.940;5.282;2022-12-10T21:34:50;1.10;99.90
27667;DHT22;15074;50.940;5.282;2022-12-10T21:37:16;1.00;99.90
27667;DHT22;15074;50.940;5.282;2022-12-10T21:39:42;1.10;99.90
27667;DHT22;15074;50.940;5.282;2022-12-10T21:42:11;1.00;99.90
